createdAt,value
2017-08-07T00:01:10.037Z,5.40
2017-08-07T00:03:38.450Z,5.70
2017-08-07T00:06:06.022Z,5.80
2017-08-07T00:08:33.569Z,5.90
2017-08-07T00:11:01.131Z,5.43
2017-08-07T00:13:28.723Z,5.97
2017-08-07T00:15:56.471Z,5.63
2017-08-07T00:18:24.067Z,5.30
2017-08-07T00:20:51.651Z,6.20
2017-08-07T00:23:19.987Z,5.90
2017-08-07T00:25:47.555Z,5.60
2017-08-07T00:28:15.129Z,5.43
2017-08-07T00:30:42.706Z,5.40
2017-08-07T00:33:10.289Z,5.23
2017-08-07T00:35:38.609Z,5.40
2017-08-07T00:38:06.178Z,5.50
2017-08-07T00:40:33.741Z,5.77
2017-08-07T00:43:01.319Z,5.60
2017-08-07T00:45:28.901Z,5.50
2017-08-07T00:47:57.244Z,5.40
2017-08-07T00:50:24.809Z,5.20
2017-08-07T00:52:52.374Z,5.57
2017-08-07T00:55:19.967Z,5.23
2017-08-07T00:57:48.289Z,6.03
2017-08-07T01:00:15.868Z,5.70
2017-08-07T01:02:43.443Z,6.00
2017-08-07T01:05:11.035Z,5.27
2017-08-07T01:07:38.616Z,5.70
2017-08-07T01:10:06.203Z,6.33
2017-08-07T01:12:33.773Z,4.90
2017-08-07T01:15:01.376Z,5.97
2017-08-07T01:17:28.953Z,5.53
2017-08-07T01:19:56.498Z,5.43
2017-08-07T01:22:24.071Z,6.00
2017-08-07T01:24:51.646Z,5.77
2017-08-07T01:27:19.261Z,6.20
2017-08-07T01:29:47.594Z,5.93
2017-08-07T01:32:15.145Z,6.07
2017-08-07T01:34:42.729Z,5.47
2017-08-07T01:37:10.299Z,5.60
2017-08-07T01:39:37.881Z,5.90
2017-08-07T01:42:06.232Z,5.53
2017-08-07T01:44:33.813Z,5.00
2017-08-07T01:47:01.369Z,5.60
2017-08-07T01:49:28.954Z,5.70
2017-08-07T01:51:57.285Z,5.83
2017-08-07T01:54:24.863Z,5.50
2017-08-07T01:56:52.428Z,6.47
2017-08-07T01:59:19.989Z,5.60
2017-08-07T02:01:47.567Z,5.70
2017-08-07T02:04:15.898Z,6.00
2017-08-07T02:06:43.490Z,5.50
2017-08-07T02:09:11.042Z,6.10
2017-08-07T02:11:38.626Z,6.10
2017-08-07T02:14:06.985Z,5.70
2017-08-07T02:16:34.554Z,6.13
2017-08-07T02:19:02.124Z,5.93
2017-08-07T02:21:29.725Z,6.20
2017-08-07T02:23:57.401Z,5.87
2017-08-07T02:26:24.976Z,7.30
2017-08-07T02:28:52.538Z,5.90
2017-08-07T02:31:20.124Z,7.27
2017-08-07T02:33:47.707Z,6.17
2017-08-07T02:36:16.127Z,6.07
2017-08-07T02:38:43.697Z,6.23
2017-08-07T02:41:11.268Z,6.50
2017-08-07T02:43:38.810Z,5.97
2017-08-07T02:46:06.418Z,5.63
2017-08-07T02:48:34.018Z,6.23
2017-08-07T02:51:01.595Z,6.30
2017-08-07T02:53:29.175Z,6.13
2017-08-07T02:55:56.732Z,6.23
2017-08-07T02:58:24.317Z,6.80
2017-08-07T03:00:52.603Z,5.90
2017-08-07T03:03:20.935Z,6.23
2017-08-07T03:05:48.538Z,6.03
2017-08-07T03:08:16.104Z,6.53
2017-08-07T03:10:44.433Z,6.07
2017-08-07T03:13:12.027Z,6.57
2017-08-07T03:15:39.674Z,6.67
2017-08-07T03:18:07.235Z,6.47
2017-08-07T03:20:34.889Z,6.67
2017-08-07T03:23:02.478Z,6.27
2017-08-07T03:25:30.047Z,6.80
2017-08-07T03:27:57.633Z,6.00
2017-08-07T03:30:25.212Z,6.10
2017-08-07T03:32:52.805Z,5.67
2017-08-07T03:35:20.371Z,5.97
2017-08-07T03:37:47.978Z,6.80
2017-08-07T03:40:15.586Z,6.60
2017-08-07T03:42:43.179Z,6.53
2017-08-07T03:45:10.767Z,6.70
2017-08-07T03:47:38.351Z,6.80
2017-08-07T03:50:05.914Z,6.73
2017-08-07T03:52:33.510Z,6.23
2017-08-07T03:55:01.056Z,6.77
2017-08-07T03:57:28.634Z,6.57
2017-08-07T03:59:56.282Z,6.53
2017-08-07T04:02:23.848Z,7.67
2017-08-07T04:04:51.471Z,6.93
2017-08-07T04:07:19.032Z,6.50
2017-08-07T04:09:46.610Z,6.30
2017-08-07T04:12:14.233Z,7.07
2017-08-07T04:14:41.811Z,6.60
2017-08-07T04:17:09.397Z,7.10
2017-08-07T04:19:36.970Z,6.70
2017-08-07T04:22:04.590Z,6.40
2017-08-07T04:24:32.155Z,6.00
2017-08-07T04:26:59.726Z,6.80
2017-08-07T04:29:27.329Z,6.60
2017-08-07T04:31:54.900Z,7.23
2017-08-07T04:34:23.330Z,6.47
2017-08-07T04:36:50.910Z,6.67
2017-08-07T04:39:18.504Z,6.33
2017-08-07T04:41:46.859Z,6.20
2017-08-07T04:44:14.430Z,5.80
2017-08-07T04:46:42.048Z,6.30
2017-08-07T04:49:09.626Z,6.00
2017-08-07T04:51:37.223Z,5.93
2017-08-07T04:54:04.846Z,6.17
2017-08-07T04:56:32.511Z,5.63
2017-08-07T04:59:00.106Z,6.17
2017-08-07T05:01:27.810Z,5.40
2017-08-07T05:03:55.399Z,5.60
2017-08-07T05:06:22.961Z,5.80
2017-08-07T05:08:50.539Z,5.27
2017-08-07T05:11:18.110Z,5.30
2017-08-07T05:13:45.684Z,5.27
2017-08-07T05:16:14.033Z,5.63
2017-08-07T05:18:41.598Z,5.90
2017-08-07T05:21:09.167Z,5.50
2017-08-07T05:23:36.740Z,5.10
2017-08-07T05:26:04.310Z,5.23
2017-08-07T05:28:32.651Z,5.00
2017-08-07T05:31:00.215Z,4.87
2017-08-07T05:33:27.804Z,4.63
2017-08-07T05:35:56.142Z,4.13
2017-08-07T05:38:23.745Z,4.23
2017-08-07T05:40:52.072Z,4.30
2017-08-07T05:43:19.630Z,3.90
2017-08-07T05:45:47.214Z,4.03
2017-08-07T05:48:14.802Z,3.73
2017-08-07T05:50:42.361Z,4.00
2017-08-07T05:53:10.688Z,3.97
2017-08-07T05:55:38.273Z,4.10
2017-08-07T05:58:05.862Z,3.77
2017-08-07T06:00:33.457Z,3.50
2017-08-07T06:03:01.047Z,3.90
2017-08-07T06:05:28.618Z,3.50
2017-08-07T06:07:56.192Z,3.40
2017-08-07T06:10:23.762Z,4.07
2017-08-07T06:12:51.313Z,3.00
2017-08-07T06:15:18.893Z,3.00
2017-08-07T06:17:46.466Z,3.43
2017-08-07T06:20:14.810Z,3.70
2017-08-07T06:22:42.374Z,3.43
2017-08-07T06:25:09.938Z,3.30
2017-08-07T06:27:37.518Z,3.47
2017-08-07T06:30:05.851Z,3.33
2017-08-07T06:32:33.438Z,3.00
2017-08-07T06:35:01.002Z,3.33
2017-08-07T06:37:28.583Z,3.60
2017-08-07T06:40:02.735Z,2.90
2017-08-07T06:42:30.349Z,3.00
2017-08-07T06:44:57.925Z,3.20
2017-08-07T06:47:25.489Z,3.13
2017-08-07T06:49:53.854Z,3.10
2017-08-07T06:52:21.442Z,2.70
2017-08-07T06:54:49.018Z,2.50
2017-08-07T06:57:16.598Z,3.03
2017-08-07T06:59:44.170Z,3.10
2017-08-07T07:02:11.754Z,2.67
2017-08-07T07:04:40.169Z,2.70
2017-08-07T07:07:07.772Z,2.40
2017-08-07T07:09:35.357Z,2.43
2017-08-07T07:12:02.930Z,2.70
2017-08-07T07:14:30.530Z,2.87
2017-08-07T07:16:58.079Z,2.23
2017-08-07T07:19:25.634Z,2.20
2017-08-07T07:21:53.229Z,2.53
2017-08-07T07:24:20.794Z,2.67
2017-08-07T07:26:48.369Z,2.70
2017-08-07T07:29:15.942Z,2.70
2017-08-07T07:31:43.542Z,2.10
2017-08-07T07:34:11.114Z,2.43
2017-08-07T07:36:38.697Z,2.13
2017-08-07T07:39:06.324Z,2.50
2017-08-07T07:41:33.905Z,2.33
2017-08-07T07:44:01.513Z,2.23
2017-08-07T07:46:29.189Z,2.30
2017-08-07T07:48:57.542Z,2.60
2017-08-07T07:51:25.134Z,2.40
2017-08-07T07:53:53.462Z,2.50
2017-08-07T07:56:21.127Z,2.90
2017-08-07T07:58:48.693Z,2.60
2017-08-07T08:01:16.266Z,2.80
2017-08-07T08:03:43.844Z,2.63
2017-08-07T08:06:11.425Z,2.80
2017-08-07T08:08:39.014Z,2.40
2017-08-07T08:11:06.651Z,2.30
2017-08-07T08:13:34.218Z,2.33
2017-08-07T08:16:01.770Z,2.40
2017-08-07T08:18:29.349Z,2.67
2017-08-07T08:20:56.915Z,2.67
2017-08-07T08:23:24.501Z,2.50
2017-08-07T08:25:52.178Z,2.63
2017-08-07T08:28:19.798Z,2.20
2017-08-07T08:30:47.357Z,2.23
2017-08-07T08:33:14.915Z,2.50
2017-08-07T08:35:42.498Z,2.53
2017-08-07T08:38:10.096Z,2.90
2017-08-07T08:40:37.794Z,2.27
2017-08-07T08:43:05.385Z,2.43
2017-08-07T08:45:32.956Z,2.33
2017-08-07T08:48:00.537Z,2.40
2017-08-07T08:50:28.121Z,2.63
2017-08-07T08:52:56.447Z,2.63
2017-08-07T08:55:24.014Z,2.60
2017-08-07T08:57:51.718Z,2.47
2017-08-07T09:00:19.280Z,2.50
2017-08-07T09:02:46.857Z,2.97
2017-08-07T09:05:14.401Z,2.60
2017-08-07T09:07:42.771Z,2.70
2017-08-07T09:10:10.322Z,3.40
2017-08-07T09:12:37.861Z,2.90
2017-08-07T09:15:05.476Z,3.20
2017-08-07T09:17:33.793Z,3.57
2017-08-07T09:20:01.419Z,3.07
2017-08-07T09:22:29.753Z,3.20
2017-08-07T09:24:57.326Z,3.50
2017-08-07T09:27:24.885Z,3.40
2017-08-07T09:29:52.462Z,3.27
2017-08-07T09:32:20.050Z,3.77
2017-08-07T09:34:47.610Z,3.70
2017-08-07T09:37:15.192Z,3.07
2017-08-07T09:39:42.783Z,3.67
2017-08-07T09:42:10.370Z,3.23
2017-08-07T09:44:38.104Z,3.30
2017-08-07T09:47:06.203Z,3.80
2017-08-07T09:49:34.747Z,3.30
2017-08-07T09:52:02.376Z,3.43
2017-08-07T09:54:30.070Z,3.23
2017-08-07T09:56:57.853Z,3.10
2017-08-07T09:59:25.421Z,3.50
2017-08-07T10:01:53.013Z,3.70
2017-08-07T10:04:21.393Z,3.63
2017-08-07T10:06:49.891Z,3.47
2017-08-07T10:09:17.621Z,3.60
2017-08-07T10:11:45.274Z,3.20
2017-08-07T10:14:12.885Z,2.77
2017-08-07T10:16:40.582Z,3.10
2017-08-07T10:19:08.197Z,3.10
2017-08-07T10:21:35.828Z,3.07
2017-08-07T10:24:03.432Z,2.50
2017-08-07T10:26:30.985Z,2.90
2017-08-07T10:28:58.663Z,2.80
2017-08-07T10:31:26.310Z,2.67
2017-08-07T10:33:53.906Z,2.90
2017-08-07T10:36:21.442Z,3.13
2017-08-07T10:38:49.013Z,2.80
2017-08-07T10:41:16.575Z,2.80
2017-08-07T10:43:44.177Z,3.13
2017-08-07T10:46:11.801Z,3.20
2017-08-07T10:48:39.584Z,3.03
2017-08-07T10:51:07.199Z,2.80
2017-08-07T10:53:35.545Z,3.00
2017-08-07T10:56:03.105Z,2.83
2017-08-07T10:58:30.697Z,3.03
2017-08-07T11:00:58.257Z,2.77
2017-08-07T11:03:26.608Z,2.93
2017-08-07T11:05:54.205Z,2.60
2017-08-07T11:08:21.765Z,2.90
2017-08-07T11:10:49.355Z,3.00
2017-08-07T11:13:16.919Z,2.97
2017-08-07T11:15:44.510Z,3.27
2017-08-07T11:18:12.094Z,3.07
2017-08-07T11:20:39.662Z,3.20
2017-08-07T11:23:07.622Z,3.23
2017-08-07T11:25:35.962Z,2.70
2017-08-07T11:28:04.362Z,3.97
2017-08-07T11:30:31.931Z,2.60
2017-08-07T11:32:59.545Z,2.93
2017-08-07T11:35:27.190Z,3.00
2017-08-07T11:37:54.769Z,2.77
2017-08-07T11:40:22.331Z,2.97
2017-08-07T11:42:49.882Z,2.40
2017-08-07T11:45:17.479Z,2.77
2017-08-07T11:47:45.052Z,3.17
2017-08-07T11:50:12.667Z,2.83
2017-08-07T11:52:40.229Z,2.87
2017-08-07T11:55:07.789Z,2.60
2017-08-07T11:57:35.358Z,2.60
2017-08-07T12:00:02.950Z,2.50
2017-08-07T12:02:30.511Z,2.97
2017-08-07T12:04:58.220Z,2.50
2017-08-07T12:07:25.818Z,2.97
2017-08-07T12:09:53.390Z,3.00
2017-08-07T12:12:20.954Z,2.93
2017-08-07T12:14:48.544Z,2.80
2017-08-07T12:17:16.138Z,2.93
2017-08-07T12:19:43.701Z,3.13
2017-08-07T12:22:11.292Z,3.20
2017-08-07T12:24:38.977Z,3.00
2017-08-07T12:27:06.530Z,2.90
2017-08-07T12:29:34.116Z,3.20
2017-08-07T12:32:01.674Z,3.13
2017-08-07T12:34:30.027Z,2.87
2017-08-07T12:36:57.598Z,3.00
2017-08-07T12:39:25.190Z,3.30
2017-08-07T12:41:53.518Z,3.20
2017-08-07T12:44:21.089Z,3.50
2017-08-07T12:46:48.650Z,3.30
2017-08-07T12:49:16.247Z,3.20
2017-08-07T12:51:43.807Z,3.30
2017-08-07T12:54:12.158Z,3.37
2017-08-07T12:56:39.739Z,3.13
2017-08-07T12:59:08.095Z,3.27
2017-08-07T13:01:35.645Z,3.20
2017-08-07T13:04:03.249Z,3.50
2017-08-07T13:06:31.559Z,2.80
2017-08-07T13:08:59.124Z,3.67
2017-08-07T13:11:26.727Z,3.07
2017-08-07T13:13:54.973Z,3.17
2017-08-07T13:16:22.548Z,3.00
2017-08-07T13:18:50.150Z,3.23
2017-08-07T13:21:18.485Z,3.20
2017-08-07T13:23:46.053Z,3.23
2017-08-07T13:26:13.633Z,3.70
2017-08-07T13:28:41.249Z,3.40
2017-08-07T13:31:08.817Z,3.07
2017-08-07T13:33:36.461Z,3.00
2017-08-07T13:36:04.018Z,2.60
2017-08-07T13:38:31.625Z,3.00
2017-08-07T13:40:59.221Z,2.80
2017-08-07T13:43:27.571Z,3.37
2017-08-07T13:45:55.146Z,3.30
2017-08-07T13:48:23.478Z,3.73
2017-08-07T13:50:51.092Z,3.17
2017-08-07T13:53:19.419Z,2.60
2017-08-07T13:55:46.991Z,2.63
2017-08-07T13:58:14.549Z,2.90
2017-08-07T14:00:42.142Z,3.47
2017-08-07T14:03:09.743Z,3.20
2017-08-07T14:05:37.334Z,2.93
2017-08-07T14:08:04.927Z,3.27
2017-08-07T14:10:32.502Z,3.00
2017-08-07T14:13:00.082Z,3.60
2017-08-07T14:15:27.665Z,3.20
2017-08-07T14:17:55.237Z,3.40
2017-08-07T14:20:22.826Z,2.87
2017-08-07T14:22:51.602Z,3.10
2017-08-07T14:25:19.170Z,3.00
2017-08-07T14:27:46.746Z,3.47
2017-08-07T14:30:14.417Z,3.10
2017-08-07T14:32:41.985Z,3.17
2017-08-07T14:35:10.310Z,3.00
2017-08-07T14:37:37.906Z,3.13
2017-08-07T14:40:05.459Z,3.00
2017-08-07T14:42:33.025Z,2.90
2017-08-07T14:45:00.693Z,2.77
2017-08-07T14:47:29.074Z,2.83
2017-08-07T14:49:56.647Z,2.90
2017-08-07T14:52:24.970Z,2.80
2017-08-07T14:54:52.554Z,5.33
2017-08-07T14:57:20.339Z,5.70
2017-08-07T14:59:47.896Z,4.13
2017-08-07T15:02:15.470Z,4.07
2017-08-07T15:04:43.798Z,4.13
2017-08-07T15:07:11.382Z,4.20
2017-08-07T15:09:38.951Z,2.90
2017-08-07T15:12:06.531Z,3.23
2017-08-07T15:14:34.101Z,3.37
2017-08-07T15:17:02.439Z,4.50
2017-08-07T15:19:30.001Z,4.73
2017-08-07T15:21:57.579Z,6.60
2017-08-07T15:24:25.209Z,3.30
2017-08-07T15:26:52.773Z,4.07
2017-08-07T15:29:20.370Z,4.60
2017-08-07T15:31:47.898Z,2.83
2017-08-07T15:34:15.482Z,2.70
2017-08-07T15:36:43.118Z,3.30
2017-08-07T15:39:10.783Z,2.97
2017-08-07T15:41:38.366Z,2.70
2017-08-07T15:44:05.930Z,3.10
2017-08-07T15:46:34.392Z,3.50
2017-08-07T15:49:02.354Z,2.83
2017-08-07T15:51:30.021Z,2.97
2017-08-07T15:53:57.587Z,3.10
2017-08-07T15:56:25.177Z,3.07
2017-08-07T15:58:52.762Z,3.30
2017-08-07T16:01:20.341Z,3.37
2017-08-07T16:03:48.693Z,2.93
2017-08-07T16:06:17.014Z,3.20
2017-08-07T16:08:44.734Z,2.97
2017-08-07T16:11:14.197Z,3.20
2017-08-07T16:13:41.777Z,2.90
2017-08-07T16:16:09.350Z,3.23
2017-08-07T16:18:37.718Z,2.93
2017-08-07T16:21:05.285Z,2.80
2017-08-07T16:23:33.641Z,3.20
2017-08-07T16:26:01.205Z,3.40
2017-08-07T16:28:28.757Z,2.90
2017-08-07T16:30:57.053Z,3.27
2017-08-07T16:33:24.626Z,3.00
2017-08-07T16:35:53.001Z,2.93
2017-08-07T16:38:20.583Z,3.20
2017-08-07T16:40:48.915Z,3.00
2017-08-07T16:43:16.499Z,15.90
2017-08-07T16:45:44.132Z,8.60
2017-08-07T16:48:11.734Z,6.20
2017-08-07T16:50:39.323Z,2.90
2017-08-07T16:53:06.913Z,17.73
2017-08-07T16:55:34.525Z,2.87
2017-08-07T16:58:02.861Z,3.70
2017-08-07T17:00:30.718Z,3.93
2017-08-07T17:02:59.124Z,3.10
2017-08-07T17:05:26.718Z,3.47
2017-08-07T17:07:55.087Z,3.07
2017-08-07T17:10:23.435Z,3.50
2017-08-07T17:12:51.045Z,3.10
2017-08-07T17:15:18.677Z,3.43
2017-08-07T17:17:46.259Z,3.03
2017-08-07T17:20:13.818Z,3.37
2017-08-07T17:22:42.183Z,3.17
2017-08-07T17:25:09.762Z,2.90
2017-08-07T17:27:38.074Z,3.70
2017-08-07T17:30:05.665Z,2.90
2017-08-07T17:32:33.227Z,3.67
2017-08-07T17:35:00.788Z,3.47
2017-08-07T17:37:28.369Z,3.47
2017-08-07T17:39:56.001Z,3.30
2017-08-07T17:42:23.590Z,3.27
2017-08-07T17:44:51.174Z,3.27
2017-08-07T17:47:18.819Z,3.13
2017-08-07T17:49:47.171Z,3.53
2017-08-07T17:52:14.750Z,3.50
2017-08-07T17:54:42.354Z,3.67
2017-08-07T17:57:10.015Z,3.67
2017-08-07T17:59:37.651Z,3.60
2017-08-07T18:02:06.040Z,3.30
2017-08-07T18:04:34.436Z,3.60
2017-08-07T18:07:02.035Z,3.83
2017-08-07T18:09:29.622Z,5.63
2017-08-07T18:11:57.213Z,6.90
2017-08-07T18:14:24.788Z,6.47
2017-08-07T18:16:52.376Z,7.50
2017-08-07T18:19:19.954Z,8.23
2017-08-07T18:21:47.529Z,6.40
2017-08-07T18:24:15.105Z,5.30
2017-08-07T18:26:43.454Z,4.50
2017-08-07T18:29:11.018Z,5.07
2017-08-07T18:31:38.591Z,5.30
2017-08-07T18:34:06.157Z,4.50
2017-08-07T18:36:33.738Z,4.13
2017-08-07T18:39:02.092Z,4.37
2017-08-07T18:41:29.689Z,3.87
2017-08-07T18:43:57.256Z,4.13
2017-08-07T18:46:24.858Z,3.80
2017-08-07T18:48:52.447Z,3.70
2017-08-07T18:51:20.778Z,4.07
2017-08-07T18:53:48.385Z,3.60
2017-08-07T18:56:16.746Z,3.80
2017-08-07T18:58:44.345Z,3.77
2017-08-07T19:01:11.965Z,3.53
2017-08-07T19:03:39.558Z,3.70
2017-08-07T19:06:07.132Z,3.60
2017-08-07T19:08:34.697Z,3.87
2017-08-07T19:11:02.278Z,3.60
2017-08-07T19:13:29.875Z,4.03
2017-08-07T19:15:57.455Z,3.90
2017-08-07T19:18:25.040Z,4.27
2017-08-07T19:20:52.621Z,4.27
2017-08-07T19:23:20.210Z,4.33
2017-08-07T19:25:47.778Z,4.57
2017-08-07T19:28:15.385Z,4.10
2017-08-07T19:30:42.986Z,4.10
2017-08-07T19:33:10.545Z,4.67
2017-08-07T19:35:38.182Z,3.90
2017-08-07T19:38:05.746Z,5.27
2017-08-07T19:40:33.288Z,5.20
2017-08-07T19:43:00.868Z,5.50
2017-08-07T19:45:28.467Z,4.97
2017-08-07T19:47:56.243Z,4.50
2017-08-07T19:50:23.836Z,4.70
2017-08-07T19:52:51.429Z,4.67
2017-08-07T19:55:19.149Z,5.00
2017-08-07T19:57:46.760Z,3.83
2017-08-07T20:00:14.351Z,4.47
2017-08-07T20:02:41.919Z,5.50
2017-08-07T20:05:10.286Z,5.20
2017-08-07T20:07:37.887Z,5.17
2017-08-07T20:10:05.460Z,4.83
2017-08-07T20:12:33.048Z,4.77
2017-08-07T20:15:00.634Z,4.83
2017-08-07T20:17:28.224Z,5.53
2017-08-07T20:19:55.848Z,4.90
2017-08-07T20:22:23.458Z,5.03
2017-08-07T20:24:51.047Z,5.33
2017-08-07T20:27:18.646Z,4.73
2017-08-07T20:29:46.233Z,4.90
2017-08-07T20:32:13.797Z,5.20
2017-08-07T20:34:41.378Z,5.27
2017-08-07T20:37:08.929Z,6.40
2017-08-07T20:39:36.501Z,8.03
2017-08-07T20:42:04.119Z,8.80
2017-08-07T20:44:31.701Z,7.20
2017-08-07T20:46:59.309Z,6.10
2017-08-07T20:49:26.899Z,5.37
2017-08-07T20:51:54.506Z,5.80
2017-08-07T20:54:22.150Z,4.80
2017-08-07T20:56:49.743Z,5.33
2017-08-07T20:59:17.318Z,5.77
2017-08-07T21:01:44.885Z,5.90
2017-08-07T21:04:12.617Z,5.77
2017-08-07T21:06:40.222Z,5.23
2017-08-07T21:09:07.804Z,5.80
2017-08-07T21:11:35.404Z,5.50
2017-08-07T21:14:02.973Z,5.37
2017-08-07T21:16:30.551Z,5.67
2017-08-07T21:18:58.214Z,5.83
2017-08-07T21:21:25.792Z,5.63
2017-08-07T21:23:53.362Z,5.47
2017-08-07T21:26:20.955Z,5.27
2017-08-07T21:28:48.650Z,5.30
2017-08-07T21:31:16.259Z,5.30
2017-08-07T21:33:45.005Z,5.80
2017-08-07T21:36:12.646Z,5.57
2017-08-07T21:38:40.281Z,6.37
2017-08-07T21:41:08.658Z,5.50
2017-08-07T21:43:36.236Z,5.57
2017-08-07T21:46:03.813Z,5.63
2017-08-07T21:48:31.413Z,5.87
2017-08-07T21:50:58.986Z,5.10
2017-08-07T21:53:26.553Z,5.90
2017-08-07T21:55:54.928Z,5.70
2017-08-07T21:58:23.265Z,5.50
2017-08-07T22:00:50.846Z,6.07
2017-08-07T22:03:18.423Z,5.20
2017-08-07T22:05:46.005Z,5.50
2017-08-07T22:08:13.604Z,5.03
2017-08-07T22:10:41.174Z,5.27
2017-08-07T22:13:08.774Z,5.57
2017-08-07T22:15:37.106Z,4.90
2017-08-07T22:18:04.701Z,5.20
2017-08-07T22:20:32.310Z,5.37
2017-08-07T22:22:59.879Z,5.87
2017-08-07T22:25:27.452Z,5.37
2017-08-07T22:27:55.022Z,5.20
2017-08-07T22:30:22.731Z,5.90
2017-08-07T22:32:51.098Z,5.93
2017-08-07T22:35:18.682Z,5.77
2017-08-07T22:37:46.242Z,5.70
2017-08-07T22:40:13.809Z,6.17
2017-08-07T22:42:41.401Z,6.77
2017-08-07T22:45:08.974Z,5.97
2017-08-07T22:47:36.553Z,6.00
2017-08-07T22:50:04.110Z,5.93
2017-08-07T22:52:31.686Z,6.20
2017-08-07T22:54:59.275Z,6.20
2017-08-07T22:57:26.845Z,6.10
2017-08-07T22:59:54.458Z,6.60
2017-08-07T23:02:22.045Z,6.17
2017-08-07T23:04:50.417Z,6.47
2017-08-07T23:07:18.774Z,6.27
2017-08-07T23:09:46.334Z,6.10
2017-08-07T23:12:13.949Z,6.20
2017-08-07T23:14:41.517Z,5.67
2017-08-07T23:17:09.158Z,6.10
2017-08-07T23:19:36.740Z,6.10
2017-08-07T23:22:04.326Z,6.03
2017-08-07T23:24:31.885Z,6.77
2017-08-07T23:26:59.481Z,6.50
2017-08-07T23:29:27.834Z,6.77
2017-08-07T23:31:55.417Z,6.80
2017-08-07T23:34:23.743Z,6.10
2017-08-07T23:36:51.877Z,6.17
2017-08-07T23:39:20.122Z,6.97
2017-08-07T23:41:49.005Z,5.93
2017-08-07T23:44:16.635Z,6.90
2017-08-07T23:46:44.193Z,7.80
2017-08-07T23:49:11.757Z,6.50
2017-08-07T23:51:39.343Z,6.40
2017-08-07T23:54:06.900Z,6.67
2017-08-07T23:56:34.521Z,6.20
2017-08-07T23:59:02.878Z,6.67
